Hovedside
METAR-TAF:

METAR-TAF

Lufthavner :

Oshima, Japan

breddegrad: 34-47N, lengdegrad: 139-22E, høyde over havet: 38 m

Gjeldene værobservasjon

Denne rapporten ble laget for 14 timer og 49 minutter siden, klokken 08:00 UTC
Vind 10 kt fra Øst
Temperatur 25°C
Luftfuktighet 61%
Trykk 1007 hPa
Sikt 10 km eller mer
Få skyer i en høyde av 4000 ft
Spredte skyer i en høyde av 7000 ft

METAR: RJTO 170800Z 09010KT 9999 FEW040 SCT070 25/17 Q1007

Tid: 07:49 (22:49 UTC)


TAF: fraværende

Værobservasjoner og værvarsel for over 4000 flyplasser (METAR- og TAF-rapporter).

Tilgjengelige stasjoner er representert av de røde og gule prikkene på kartet.

Hold musepekeren over prikken for å se navnet på stasjonen.

Klikk så for å se værobservasjoner og -varsler.

For å forandre kartet kan du klikke på den grønne knappen med svart kryss for å zoome inn, på den grønne knappen med strek for å zoome ut, eller på de grønne pilene for å se tilstøtende kart.


METAR-TAF: